Aycock, Louisiana
Current Conditions -  °F | °C
As of 6:35 AM on Sunday 21 Dec 2014 (Local Time) from KMNE Reporting Station
Haze Haze  
Wind Chill: 34°   Ceiling: 4800
Heat Index: 34°   Visibility: 5mi
Dew Point: 34°   Wind: 0mph
Humidity: 100%   Direction: NA
Pressure: 30.17"   Gusts: NA
Location:  32.7443°N, 92.9625°W
Report Text: KMNE 211235Z AUTO 00000KT 5SM BR BKN048 01/01 A3017 RMK AO2
Loading
Personal Weather Stations






























Interactive Weather Map New forecast layout! Learn more

10-Day Weather Forecast

Advertisements
Track Severe Weather on mobile